Beemer, NE (68716)

2:41 AM CST on February 24, 2017 (GMT -0600)
Skywave Wireless, Inc. | | Change Station
Active Advisory: Winter Storm Warning

Elev 1312 ft 41.84 °N, 96.71 °W | Updated 11 seconds ago

Snow
Snow
29.7 °F
Feels Like 19 °F
N
13.0
Wind Variable Wind from ENE
Gusts 17.5 mph

Today
High -- | Low -- °F
--% Chance of Precip.
Yesterday
High -- | Low -- °F
Precip. -- in
Pressure 29.74 in
Visibility 4.0 miles
Clouds Overcast 1000 ft
Windchill 19 °F
Dew Point 30 °F
Humidity 99%
Rainfall 0.00 in
Snow Depth Not available.
7:09 AM 6:11 PM
Waning Crescent, 6% visible
METAR KLCG 240835Z AUTO 36018G24KT 4SM UP OVC010 M02/M02 A2974 RMK AO2 T10161025
Pressure 29.74 in
Visibility 4.0 miles
Clouds Overcast 1000 ft
Windchill 19 °F
Dew Point 30 °F
Humidity 99%
Rainfall 0.00 in
Snow Depth Not available.
7:09 AM 6:11 PM
Waning Crescent, 6% visible
METAR KLCG 240835Z AUTO 36018G24KT 4SM UP OVC010 M02/M02 A2974 RMK AO2 T10161025

Get Your Daily Forecast Email!

Thanks for signing up!

Be on the lookout for a verification email in your inbox.

You'll start receiving the daily forecast at 8 AM.

×

10-Day Weather Forecast

Almanac

Astronomy

Feb. 24, 2017 Rise Set
Actual Time
Civil Twilight
Nautical Twilight
Astronomical Twilight
Moon
Length of Visible Light
Length of Day
Tomorrow will be .
, % of the Moon is Illuminated

Today's Extremes

State Highs State Lows

Community

WunderPhotos

Upload Photos

1,962,540 photos uploaded!

WunderBlog® & News

Nearby

Air Quality

  Air Quality AQ Index Pollutant
Not available.

Snow Depth

Station Depth Elevation

Earthquake Activity

City Distance Mag. Time & Date
Minimum magnitude displayed is 2.5.

Coastal Water Temperatures

Place Temperature

Stations

Nearby Weather Stations

Station Location Temp. Windchill Dew Point Humidity Wind Precip. Elev Updated Type
                   

Watches & Warnings

Winter Storm Warning
Issued: 10:02 PM CST Feb. 23, 2017 – National Weather Service

... Winter Storm Warning remains in effect until midnight CST
Friday night...

* timing... snow, occasionally moderate to heavy, will continue
overnight with light snow continuing through the day on Friday.

* Snow accumulations... snow accumulations of 5 to 8 inches are
expected with locally higher amounts possible.

* Winds... northerly winds 20 to 30 mph gusting around 35 mph
will likely cause considerable blowing and drifting snow with
near blizzard conditions possible at times late tonight into
Friday evening.

* Impacts... reduced visibilities, with near whiteout conditions
will make travel eventually become very hazardous to nearly
impossible.

Precautionary/preparedness actions...

A Winter Storm Warning for heavy snow means severe winter weather
conditions are expected or occurring. Significant amounts of snow
are forecast that will make travel dangerous. Only travel in an
emergency. If you must travel, keep an extra flashlight, food,
and water in your vehicle in case of an emergency.